sensor_id;sensor_type;location;lat;lon;timestamp;P1;durP1;ratioP1;P2;durP2;ratioP2
40599;SDS011;26309;50.924;4.754;2023-09-19T00:00:16;10.50;;;3.13;;
40599;SDS011;26309;50.924;4.754;2023-09-19T00:02:45;12.57;;;3.00;;
40599;SDS011;26309;50.924;4.754;2023-09-19T00:05:16;13.38;;;2.78;;
40599;SDS011;26309;50.924;4.754;2023-09-19T00:07:42;15.77;;;3.28;;
40599;SDS011;26309;50.924;4.754;2023-09-19T00:10:10;15.30;;;3.05;;
40599;SDS011;26309;50.924;4.754;2023-09-19T00:12:36;13.27;;;2.85;;
40599;SDS011;26309;50.924;4.754;2023-09-19T00:15:02;13.93;;;2.90;;
40599;SDS011;26309;50.924;4.754;2023-09-19T00:17:28;19.63;;;3.25;;
40599;SDS011;26309;50.924;4.754;2023-09-19T00:19:57;10.45;;;3.05;;
40599;SDS011;26309;50.924;4.754;2023-09-19T00:22:23;18.30;;;3.65;;
40599;SDS011;26309;50.924;4.754;2023-09-19T00:24:51;15.57;;;2.58;;
40599;SDS011;26309;50.924;4.754;2023-09-19T00:27:17;18.33;;;3.42;;
40599;SDS011;26309;50.924;4.754;2023-09-19T00:29:43;15.10;;;3.20;;
40599;SDS011;26309;50.924;4.754;2023-09-19T00:32:09;11.90;;;2.75;;
40599;SDS011;26309;50.924;4.754;2023-09-19T00:34:35;12.68;;;2.97;;
40599;SDS011;26309;50.924;4.754;2023-09-19T00:37:01;9.93;;;2.63;;
40599;SDS011;26309;50.924;4.754;2023-09-19T00:39:26;14.80;;;2.72;;
40599;SDS011;26309;50.924;4.754;2023-09-19T00:41:53;9.95;;;2.80;;
40599;SDS011;26309;50.924;4.754;2023-09-19T00:44:19;8.68;;;2.72;;
40599;SDS011;26309;50.924;4.754;2023-09-19T00:46:49;14.57;;;2.50;;
40599;SDS011;26309;50.924;4.754;2023-09-19T00:49:18;12.27;;;2.83;;
40599;SDS011;26309;50.924;4.754;2023-09-19T00:51:47;13.95;;;2.95;;
40599;SDS011;26309;50.924;4.754;2023-09-19T00:54:13;12.27;;;2.85;;
40599;SDS011;26309;50.924;4.754;2023-09-19T00:56:43;13.27;;;3.13;;
40599;SDS011;26309;50.924;4.754;2023-09-19T00:59:11;10.52;;;2.78;;
40599;SDS011;26309;50.924;4.754;2023-09-19T01:01:37;18.70;;;2.90;;
40599;SDS011;26309;50.924;4.754;2023-09-19T01:04:05;17.15;;;3.00;;
40599;SDS011;26309;50.924;4.754;2023-09-19T01:06:31;8.80;;;2.58;;
40599;SDS011;26309;50.924;4.754;2023-09-19T01:08:57;12.63;;;3.08;;
40599;SDS011;26309;50.924;4.754;2023-09-19T01:14:11;10.68;;;2.80;;
40599;SDS011;26309;50.924;4.754;2023-09-19T01:17:05;17.30;;;2.95;;
40599;SDS011;26309;50.924;4.754;2023-09-19T01:22:42;16.98;;;3.40;;
40599;SDS011;26309;50.924;4.754;2023-09-19T01:28:20;9.88;;;3.20;;
40599;SDS011;26309;50.924;4.754;2023-09-19T01:30:49;16.70;;;3.35;;
40599;SDS011;26309;50.924;4.754;2023-09-19T01:33:23;10.77;;;2.90;;
40599;SDS011;26309;50.924;4.754;2023-09-19T01:35:49;14.52;;;2.80;;
40599;SDS011;26309;50.924;4.754;2023-09-19T01:38:15;15.23;;;3.38;;
40599;SDS011;26309;50.924;4.754;2023-09-19T01:40:42;14.32;;;3.03;;
40599;SDS011;26309;50.924;4.754;2023-09-19T01:43:17;14.90;;;2.85;;
40599;SDS011;26309;50.924;4.754;2023-09-19T01:45:53;14.52;;;2.95;;
40599;SDS011;26309;50.924;4.754;2023-09-19T01:51:11;13.60;;;2.45;;
40599;SDS011;26309;50.924;4.754;2023-09-19T01:53:49;12.88;;;2.83;;
40599;SDS011;26309;50.924;4.754;2023-09-19T01:56:28;22.63;;;3.17;;
40599;SDS011;26309;50.924;4.754;2023-09-19T01:59:12;12.60;;;3.03;;
40599;SDS011;26309;50.924;4.754;2023-09-19T02:01:45;11.95;;;2.80;;
40599;SDS011;26309;50.924;4.754;2023-09-19T02:04:11;11.30;;;3.05;;
40599;SDS011;26309;50.924;4.754;2023-09-19T02:06:40;11.10;;;2.92;;
40599;SDS011;26309;50.924;4.754;2023-09-19T02:09:07;12.73;;;2.72;;
40599;SDS011;26309;50.924;4.754;2023-09-19T02:11:34;16.45;;;3.20;;
40599;SDS011;26309;50.924;4.754;2023-09-19T02:14:01;11.88;;;3.50;;
40599;SDS011;26309;50.924;4.754;2023-09-19T02:16:27;18.27;;;3.22;;
40599;SDS011;26309;50.924;4.754;2023-09-19T02:18:54;15.48;;;3.30;;
40599;SDS011;26309;50.924;4.754;2023-09-19T02:21:19;17.25;;;3.17;;
40599;SDS011;26309;50.924;4.754;2023-09-19T02:23:47;11.88;;;3.03;;
40599;SDS011;26309;50.924;4.754;2023-09-19T02:26:13;15.55;;;3.00;;
40599;SDS011;26309;50.924;4.754;2023-09-19T02:28:39;11.50;;;2.65;;
40599;SDS011;26309;50.924;4.754;2023-09-19T02:31:05;12.85;;;3.35;;
40599;SDS011;26309;50.924;4.754;2023-09-19T02:33:31;13.80;;;2.60;;
40599;SDS011;26309;50.924;4.754;2023-09-19T02:35:58;14.30;;;3.10;;
40599;SDS011;26309;50.924;4.754;2023-09-19T02:38:27;15.32;;;3.38;;
40599;SDS011;26309;50.924;4.754;2023-09-19T02:40:54;12.70;;;2.80;;
40599;SDS011;26309;50.924;4.754;2023-09-19T02:43:20;18.83;;;2.90;;
40599;SDS011;26309;50.924;4.754;2023-09-19T02:45:49;15.80;;;2.83;;
40599;SDS011;26309;50.924;4.754;2023-09-19T02:48:18;22.00;;;3.65;;
40599;SDS011;26309;50.924;4.754;2023-09-19T02:50:52;14.30;;;3.15;;
40599;SDS011;26309;50.924;4.754;2023-09-19T02:53:18;12.25;;;3.05;;
40599;SDS011;26309;50.924;4.754;2023-09-19T02:55:44;10.88;;;2.70;;
40599;SDS011;26309;50.924;4.754;2023-09-19T02:58:10;12.82;;;3.17;;
40599;SDS011;26309;50.924;4.754;2023-09-19T03:00:36;14.10;;;3.03;;
40599;SDS011;26309;50.924;4.754;2023-09-19T03:03:02;15.18;;;3.55;;
40599;SDS011;26309;50.924;4.754;2023-09-19T03:05:31;14.13;;;3.13;;
40599;SDS011;26309;50.924;4.754;2023-09-19T03:07:57;15.45;;;3.15;;
40599;SDS011;26309;50.924;4.754;2023-09-19T03:10:25;14.02;;;3.40;;
40599;SDS011;26309;50.924;4.754;2023-09-19T03:12:53;13.00;;;3.00;;
40599;SDS011;26309;50.924;4.754;2023-09-19T03:15:19;12.70;;;2.97;;
40599;SDS011;26309;50.924;4.754;2023-09-19T03:17:47;15.15;;;3.38;;
40599;SDS011;26309;50.924;4.754;2023-09-19T03:20:14;14.52;;;3.35;;
40599;SDS011;26309;50.924;4.754;2023-09-19T03:22:42;19.38;;;2.92;;
40599;SDS011;26309;50.924;4.754;2023-09-19T03:25:09;18.55;;;3.15;;
40599;SDS011;26309;50.924;4.754;2023-09-19T03:27:39;16.98;;;3.45;;
40599;SDS011;26309;50.924;4.754;2023-09-19T03:30:06;14.10;;;2.90;;
40599;SDS011;26309;50.924;4.754;2023-09-19T03:32:36;10.93;;;2.45;;
40599;SDS011;26309;50.924;4.754;2023-09-19T03:35:08;18.35;;;3.75;;
40599;SDS011;26309;50.924;4.754;2023-09-19T03:37:34;12.65;;;2.67;;
40599;SDS011;26309;50.924;4.754;2023-09-19T03:40:00;15.85;;;3.00;;
40599;SDS011;26309;50.924;4.754;2023-09-19T03:42:30;18.80;;;3.55;;
40599;SDS011;26309;50.924;4.754;2023-09-19T03:44:56;15.27;;;3.17;;
40599;SDS011;26309;50.924;4.754;2023-09-19T03:47:22;11.98;;;3.30;;
40599;SDS011;26309;50.924;4.754;2023-09-19T03:49:49;10.80;;;3.13;;
40599;SDS011;26309;50.924;4.754;2023-09-19T03:52:15;13.27;;;3.25;;
40599;SDS011;26309;50.924;4.754;2023-09-19T03:54:41;15.13;;;2.63;;
40599;SDS011;26309;50.924;4.754;2023-09-19T03:57:10;11.57;;;2.50;;
40599;SDS011;26309;50.924;4.754;2023-09-19T03:59:37;16.40;;;3.15;;
40599;SDS011;26309;50.924;4.754;2023-09-19T04:02:03;12.57;;;2.88;;
40599;SDS011;26309;50.924;4.754;2023-09-19T04:04:29;18.25;;;3.20;;
40599;SDS011;26309;50.924;4.754;2023-09-19T04:06:55;12.20;;;2.90;;
40599;SDS011;26309;50.924;4.754;2023-09-19T04:09:23;11.30;;;2.95;;
40599;SDS011;26309;50.924;4.754;2023-09-19T04:11:49;14.05;;;3.42;;
40599;SDS011;26309;50.924;4.754;2023-09-19T04:14:15;15.27;;;3.00;;
40599;SDS011;26309;50.924;4.754;2023-09-19T04:16:41;16.75;;;3.03;;
40599;SDS011;26309;50.924;4.754;2023-09-19T04:19:07;12.85;;;3.17;;
40599;SDS011;26309;50.924;4.754;2023-09-19T04:21:33;15.27;;;3.25;;
40599;SDS011;26309;50.924;4.754;2023-09-19T04:23:59;16.45;;;3.35;;
40599;SDS011;26309;50.924;4.754;2023-09-19T04:26:25;15.05;;;3.35;;
40599;SDS011;26309;50.924;4.754;2023-09-19T04:28:51;20.92;;;3.45;;
40599;SDS011;26309;50.924;4.754;2023-09-19T04:31:17;14.77;;;3.80;;
40599;SDS011;26309;50.924;4.754;2023-09-19T04:33:45;15.20;;;3.10;;
40599;SDS011;26309;50.924;4.754;2023-09-19T04:36:10;15.35;;;3.40;;
40599;SDS011;26309;50.924;4.754;2023-09-19T04:38:38;14.23;;;3.53;;
40599;SDS011;26309;50.924;4.754;2023-09-19T04:41:04;13.48;;;3.63;;
40599;SDS011;26309;50.924;4.754;2023-09-19T04:43:29;11.88;;;2.88;;
40599;SDS011;26309;50.924;4.754;2023-09-19T04:45:55;16.45;;;3.20;;
40599;SDS011;26309;50.924;4.754;2023-09-19T04:48:25;20.35;;;3.63;;
40599;SDS011;26309;50.924;4.754;2023-09-19T04:50:51;11.02;;;3.10;;
40599;SDS011;26309;50.924;4.754;2023-09-19T04:53:18;15.05;;;3.50;;
40599;SDS011;26309;50.924;4.754;2023-09-19T04:55:49;17.73;;;3.63;;
40599;SDS011;26309;50.924;4.754;2023-09-19T04:58:16;11.65;;;3.58;;
40599;SDS011;26309;50.924;4.754;2023-09-19T05:00:43;20.95;;;3.70;;
40599;SDS011;26309;50.924;4.754;2023-09-19T05:03:08;17.90;;;3.60;;
40599;SDS011;26309;50.924;4.754;2023-09-19T05:05:34;9.73;;;2.92;;
40599;SDS011;26309;50.924;4.754;2023-09-19T05:08:00;15.65;;;3.42;;
40599;SDS011;26309;50.924;4.754;2023-09-19T05:10:30;13.93;;;3.28;;
40599;SDS011;26309;50.924;4.754;2023-09-19T05:12:56;13.73;;;2.92;;
40599;SDS011;26309;50.924;4.754;2023-09-19T05:15:22;11.30;;;2.50;;
40599;SDS011;26309;50.924;4.754;2023-09-19T05:17:48;12.98;;;2.65;;
40599;SDS011;26309;50.924;4.754;2023-09-19T05:20:16;11.63;;;3.10;;
40599;SDS011;26309;50.924;4.754;2023-09-19T05:22:57;12.48;;;2.95;;
40599;SDS011;26309;50.924;4.754;2023-09-19T05:25:27;18.10;;;3.17;;
40599;SDS011;26309;50.924;4.754;2023-09-19T05:27:56;17.50;;;3.67;;
40599;SDS011;26309;50.924;4.754;2023-09-19T05:30:23;14.35;;;3.55;;
40599;SDS011;26309;50.924;4.754;2023-09-19T05:32:50;18.25;;;3.38;;
40599;SDS011;26309;50.924;4.754;2023-09-19T05:35:16;14.55;;;3.17;;
40599;SDS011;26309;50.924;4.754;2023-09-19T05:37:42;15.50;;;3.20;;
40599;SDS011;26309;50.924;4.754;2023-09-19T05:40:10;17.05;;;3.30;;
40599;SDS011;26309;50.924;4.754;2023-09-19T05:42:37;13.80;;;2.85;;
40599;SDS011;26309;50.924;4.754;2023-09-19T05:45:04;12.25;;;2.80;;
40599;SDS011;26309;50.924;4.754;2023-09-19T05:47:31;9.38;;;2.97;;
40599;SDS011;26309;50.924;4.754;2023-09-19T05:49:58;14.07;;;3.22;;
40599;SDS011;26309;50.924;4.754;2023-09-19T05:52:24;9.85;;;2.72;;
40599;SDS011;26309;50.924;4.754;2023-09-19T05:54:50;18.70;;;3.22;;
40599;SDS011;26309;50.924;4.754;2023-09-19T05:57:16;16.33;;;2.95;;
40599;SDS011;26309;50.924;4.754;2023-09-19T05:59:45;16.58;;;3.05;;
40599;SDS011;26309;50.924;4.754;2023-09-19T06:02:12;11.73;;;2.75;;
40599;SDS011;26309;50.924;4.754;2023-09-19T06:04:39;11.90;;;3.20;;
40599;SDS011;26309;50.924;4.754;2023-09-19T06:07:08;13.07;;;3.17;;
40599;SDS011;26309;50.924;4.754;2023-09-19T06:09:34;11.80;;;3.20;;
40599;SDS011;26309;50.924;4.754;2023-09-19T06:12:00;16.50;;;3.20;;
40599;SDS011;26309;50.924;4.754;2023-09-19T06:14:28;15.60;;;3.35;;
40599;SDS011;26309;50.924;4.754;2023-09-19T06:16:54;17.40;;;3.30;;
40599;SDS011;26309;50.924;4.754;2023-09-19T06:19:20;15.10;;;2.90;;
40599;SDS011;26309;50.924;4.754;2023-09-19T06:21:48;15.45;;;2.85;;
40599;SDS011;26309;50.924;4.754;2023-09-19T06:24:14;12.73;;;3.10;;
40599;SDS011;26309;50.924;4.754;2023-09-19T06:26:40;17.10;;;3.67;;
40599;SDS011;26309;50.924;4.754;2023-09-19T06:29:09;16.30;;;3.65;;
40599;SDS011;26309;50.924;4.754;2023-09-19T06:31:35;15.45;;;2.95;;
40599;SDS011;26309;50.924;4.754;2023-09-19T06:34:01;14.35;;;3.05;;
40599;SDS011;26309;50.924;4.754;2023-09-19T06:36:28;13.05;;;3.15;;
40599;SDS011;26309;50.924;4.754;2023-09-19T06:38:54;18.08;;;3.95;;
40599;SDS011;26309;50.924;4.754;2023-09-19T06:41:20;13.68;;;3.40;;
40599;SDS011;26309;50.924;4.754;2023-09-19T06:43:50;13.88;;;3.08;;
40599;SDS011;26309;50.924;4.754;2023-09-19T06:46:18;12.40;;;3.00;;
40599;SDS011;26309;50.924;4.754;2023-09-19T06:48:44;14.13;;;2.95;;
40599;SDS011;26309;50.924;4.754;2023-09-19T06:51:12;15.35;;;3.20;;
40599;SDS011;26309;50.924;4.754;2023-09-19T06:53:40;10.13;;;3.00;;
40599;SDS011;26309;50.924;4.754;2023-09-19T06:56:06;15.75;;;3.28;;
40599;SDS011;26309;50.924;4.754;2023-09-19T06:58:32;10.82;;;2.53;;
40599;SDS011;26309;50.924;4.754;2023-09-19T07:00:58;12.32;;;2.58;;
40599;SDS011;26309;50.924;4.754;2023-09-19T07:03:24;14.45;;;2.90;;
40599;SDS011;26309;50.924;4.754;2023-09-19T07:05:52;10.65;;;2.53;;
40599;SDS011;26309;50.924;4.754;2023-09-19T07:08:21;16.77;;;3.45;;
40599;SDS011;26309;50.924;4.754;2023-09-19T07:10:47;18.65;;;3.22;;
40599;SDS011;26309;50.924;4.754;2023-09-19T07:13:13;15.10;;;3.15;;
40599;SDS011;26309;50.924;4.754;2023-09-19T07:15:42;15.52;;;2.85;;
40599;SDS011;26309;50.924;4.754;2023-09-19T07:18:12;12.75;;;2.85;;
40599;SDS011;26309;50.924;4.754;2023-09-19T07:20:45;12.52;;;2.95;;
40599;SDS011;26309;50.924;4.754;2023-09-19T07:23:15;11.80;;;2.70;;
40599;SDS011;26309;50.924;4.754;2023-09-19T07:25:47;11.60;;;2.72;;
40599;SDS011;26309;50.924;4.754;2023-09-19T07:28:13;15.95;;;2.90;;
40599;SDS011;26309;50.924;4.754;2023-09-19T07:30:39;22.23;;;2.92;;
40599;SDS011;26309;50.924;4.754;2023-09-19T07:33:06;13.95;;;2.67;;
40599;SDS011;26309;50.924;4.754;2023-09-19T07:35:36;12.77;;;2.80;;
40599;SDS011;26309;50.924;4.754;2023-09-19T07:38:05;22.90;;;3.42;;
40599;SDS011;26309;50.924;4.754;2023-09-19T07:40:31;11.40;;;3.05;;
40599;SDS011;26309;50.924;4.754;2023-09-19T07:42:57;13.65;;;2.67;;
40599;SDS011;26309;50.924;4.754;2023-09-19T07:45:27;17.60;;;3.65;;
40599;SDS011;26309;50.924;4.754;2023-09-19T07:47:55;11.27;;;2.60;;
40599;SDS011;26309;50.924;4.754;2023-09-19T07:50:21;11.38;;;2.92;;
40599;SDS011;26309;50.924;4.754;2023-09-19T07:52:47;12.65;;;2.83;;
40599;SDS011;26309;50.924;4.754;2023-09-19T07:55:16;7.97;;;2.80;;
40599;SDS011;26309;50.924;4.754;2023-09-19T07:57:45;17.08;;;2.72;;
40599;SDS011;26309;50.924;4.754;2023-09-19T08:00:14;14.93;;;3.20;;
40599;SDS011;26309;50.924;4.754;2023-09-19T08:02:41;13.27;;;2.80;;
40599;SDS011;26309;50.924;4.754;2023-09-19T08:05:08;17.15;;;3.28;;
40599;SDS011;26309;50.924;4.754;2023-09-19T08:07:45;11.60;;;2.70;;
40599;SDS011;26309;50.924;4.754;2023-09-19T08:10:15;14.52;;;2.70;;
40599;SDS011;26309;50.924;4.754;2023-09-19T08:12:43;10.55;;;2.78;;
40599;SDS011;26309;50.924;4.754;2023-09-19T08:15:19;16.98;;;2.78;;
40599;SDS011;26309;50.924;4.754;2023-09-19T08:17:46;15.32;;;2.75;;
40599;SDS011;26309;50.924;4.754;2023-09-19T08:20:12;15.07;;;3.33;;
40599;SDS011;26309;50.924;4.754;2023-09-19T08:22:48;7.90;;;2.45;;
40599;SDS011;26309;50.924;4.754;2023-09-19T08:25:17;17.00;;;3.00;;
40599;SDS011;26309;50.924;4.754;2023-09-19T08:27:44;15.30;;;2.70;;
40599;SDS011;26309;50.924;4.754;2023-09-19T08:30:16;13.48;;;2.97;;
40599;SDS011;26309;50.924;4.754;2023-09-19T08:32:45;14.13;;;3.15;;
40599;SDS011;26309;50.924;4.754;2023-09-19T08:35:11;10.52;;;2.50;;
40599;SDS011;26309;50.924;4.754;2023-09-19T08:37:37;15.48;;;2.67;;
40599;SDS011;26309;50.924;4.754;2023-09-19T08:40:03;15.93;;;3.20;;
40599;SDS011;26309;50.924;4.754;2023-09-19T08:42:31;11.98;;;2.50;;
40599;SDS011;26309;50.924;4.754;2023-09-19T08:45:12;12.43;;;3.13;;
40599;SDS011;26309;50.924;4.754;2023-09-19T08:47:46;12.60;;;2.95;;
40599;SDS011;26309;50.924;4.754;2023-09-19T08:50:28;13.65;;;2.97;;
40599;SDS011;26309;50.924;4.754;2023-09-19T08:52:56;13.88;;;3.15;;
40599;SDS011;26309;50.924;4.754;2023-09-19T08:55:29;13.73;;;2.80;;
40599;SDS011;26309;50.924;4.754;2023-09-19T08:58:00;12.85;;;3.03;;
40599;SDS011;26309;50.924;4.754;2023-09-19T09:00:29;14.13;;;2.90;;
40599;SDS011;26309;50.924;4.754;2023-09-19T09:02:56;14.40;;;2.63;;
40599;SDS011;26309;50.924;4.754;2023-09-19T09:05:23;13.63;;;2.78;;
40599;SDS011;26309;50.924;4.754;2023-09-19T09:07:51;11.48;;;3.03;;
40599;SDS011;26309;50.924;4.754;2023-09-19T09:10:20;16.15;;;3.25;;
40599;SDS011;26309;50.924;4.754;2023-09-19T09:12:52;11.10;;;2.97;;
40599;SDS011;26309;50.924;4.754;2023-09-19T09:15:22;14.02;;;2.50;;
40599;SDS011;26309;50.924;4.754;2023-09-19T09:17:48;11.48;;;2.58;;
40599;SDS011;26309;50.924;4.754;2023-09-19T09:20:16;8.68;;;2.60;;
40599;SDS011;26309;50.924;4.754;2023-09-19T09:22:51;12.55;;;3.10;;
40599;SDS011;26309;50.924;4.754;2023-09-19T09:25:19;13.25;;;3.10;;
40599;SDS011;26309;50.924;4.754;2023-09-19T09:28:01;16.80;;;3.10;;
40599;SDS011;26309;50.924;4.754;2023-09-19T09:30:34;11.80;;;2.97;;
40599;SDS011;26309;50.924;4.754;2023-09-19T09:33:09;11.93;;;2.38;;
40599;SDS011;26309;50.924;4.754;2023-09-19T09:35:49;13.38;;;2.22;;
40599;SDS011;26309;50.924;4.754;2023-09-19T09:38:20;10.45;;;2.45;;
40599;SDS011;26309;50.924;4.754;2023-09-19T09:40:51;13.43;;;2.72;;
40599;SDS011;26309;50.924;4.754;2023-09-19T09:43:25;11.40;;;2.83;;
40599;SDS011;26309;50.924;4.754;2023-09-19T09:46:06;10.18;;;2.40;;
40599;SDS011;26309;50.924;4.754;2023-09-19T09:51:41;11.55;;;2.47;;
40599;SDS011;26309;50.924;4.754;2023-09-19T09:54:13;12.90;;;2.67;;
40599;SDS011;26309;50.924;4.754;2023-09-19T09:57:07;10.63;;;2.33;;
40599;SDS011;26309;50.924;4.754;2023-09-19T09:59:49;8.70;;;2.08;;
40599;SDS011;26309;50.924;4.754;2023-09-19T10:04:51;11.63;;;2.95;;
40599;SDS011;26309;50.924;4.754;2023-09-19T10:07:27;9.02;;;2.15;;
40599;SDS011;26309;50.924;4.754;2023-09-19T10:09:58;12.02;;;2.92;;
40599;SDS011;26309;50.924;4.754;2023-09-19T10:12:34;13.95;;;2.70;;
40599;SDS011;26309;50.924;4.754;2023-09-19T10:15:07;10.57;;;2.20;;
40599;SDS011;26309;50.924;4.754;2023-09-19T10:17:36;8.93;;;1.95;;
40599;SDS011;26309;50.924;4.754;2023-09-19T10:20:16;8.88;;;2.28;;
40599;SDS011;26309;50.924;4.754;2023-09-19T10:23:17;12.02;;;2.00;;
40599;SDS011;26309;50.924;4.754;2023-09-19T10:25:51;8.10;;;2.13;;
40599;SDS011;26309;50.924;4.754;2023-09-19T10:28:19;7.93;;;1.83;;
40599;SDS011;26309;50.924;4.754;2023-09-19T10:30:51;8.50;;;2.33;;
40599;SDS011;26309;50.924;4.754;2023-09-19T10:33:23;8.63;;;2.17;;
40599;SDS011;26309;50.924;4.754;2023-09-19T10:35:56;9.65;;;2.40;;
40599;SDS011;26309;50.924;4.754;2023-09-19T10:38:25;14.70;;;2.38;;
40599;SDS011;26309;50.924;4.754;2023-09-19T10:40:53;8.88;;;1.92;;
40599;SDS011;26309;50.924;4.754;2023-09-19T10:43:32;10.07;;;2.17;;
40599;SDS011;26309;50.924;4.754;2023-09-19T10:46:02;5.18;;;1.52;;
40599;SDS011;26309;50.924;4.754;2023-09-19T10:48:32;7.78;;;1.88;;
40599;SDS011;26309;50.924;4.754;2023-09-19T10:51:01;7.70;;;1.98;;
40599;SDS011;26309;50.924;4.754;2023-09-19T10:53:41;7.47;;;1.92;;
40599;SDS011;26309;50.924;4.754;2023-09-19T10:56:40;7.97;;;2.08;;
40599;SDS011;26309;50.924;4.754;2023-09-19T10:59:12;8.73;;;1.98;;
40599;SDS011;26309;50.924;4.754;2023-09-19T11:04:22;9.02;;;1.50;;
40599;SDS011;26309;50.924;4.754;2023-09-19T11:06:59;6.18;;;1.70;;
40599;SDS011;26309;50.924;4.754;2023-09-19T11:10:00;8.13;;;1.38;;
40599;SDS011;26309;50.924;4.754;2023-09-19T11:15:07;7.10;;;1.80;;
40599;SDS011;26309;50.924;4.754;2023-09-19T11:17:34;5.70;;;1.48;;
40599;SDS011;26309;50.924;4.754;2023-09-19T11:28:30;10.50;;;1.98;;
40599;SDS011;26309;50.924;4.754;2023-09-19T11:30:57;6.70;;;1.77;;
40599;SDS011;26309;50.924;4.754;2023-09-19T11:36:09;10.45;;;1.75;;
40599;SDS011;26309;50.924;4.754;2023-09-19T11:46:32;6.57;;;1.52;;
40599;SDS011;26309;50.924;4.754;2023-09-19T11:49:08;4.32;;;1.55;;
40599;SDS011;26309;50.924;4.754;2023-09-19T11:51:42;3.97;;;1.35;;
40599;SDS011;26309;50.924;4.754;2023-09-19T11:54:12;5.15;;;1.38;;
40599;SDS011;26309;50.924;4.754;2023-09-19T11:56:45;5.35;;;1.20;;
40599;SDS011;26309;50.924;4.754;2023-09-19T11:59:19;4.80;;;1.65;;
40599;SDS011;26309;50.924;4.754;2023-09-19T12:01:55;5.97;;;1.42;;
40599;SDS011;26309;50.924;4.754;2023-09-19T12:04:41;5.18;;;1.58;;
40599;SDS011;26309;50.924;4.754;2023-09-19T12:07:16;4.15;;;1.40;;
40599;SDS011;26309;50.924;4.754;2023-09-19T12:10:03;4.78;;;1.70;;
40599;SDS011;26309;50.924;4.754;2023-09-19T12:12:29;5.53;;;1.20;;
40599;SDS011;26309;50.924;4.754;2023-09-19T12:14:58;4.22;;;1.15;;
40599;SDS011;26309;50.924;4.754;2023-09-19T12:17:46;4.50;;;1.23;;
40599;SDS011;26309;50.924;4.754;2023-09-19T12:20:13;4.43;;;1.30;;
40599;SDS011;26309;50.924;4.754;2023-09-19T12:22:42;5.40;;;1.55;;
40599;SDS011;26309;50.924;4.754;2023-09-19T12:25:09;6.45;;;1.30;;
40599;SDS011;26309;50.924;4.754;2023-09-19T12:27:49;4.53;;;1.48;;
40599;SDS011;26309;50.924;4.754;2023-09-19T12:30:29;3.67;;;1.27;;
40599;SDS011;26309;50.924;4.754;2023-09-19T12:32:58;5.75;;;1.33;;
40599;SDS011;26309;50.924;4.754;2023-09-19T12:35:31;4.63;;;1.30;;
40599;SDS011;26309;50.924;4.754;2023-09-19T12:38:01;6.97;;;1.38;;
40599;SDS011;26309;50.924;4.754;2023-09-19T12:40:28;5.45;;;1.02;;
40599;SDS011;26309;50.924;4.754;2023-09-19T12:42:58;4.00;;;1.08;;
40599;SDS011;26309;50.924;4.754;2023-09-19T12:45:27;6.20;;;1.60;;
40599;SDS011;26309;50.924;4.754;2023-09-19T12:53:33;4.30;;;1.50;;
40599;SDS011;26309;50.924;4.754;2023-09-19T12:56:12;7.18;;;1.60;;
40599;SDS011;26309;50.924;4.754;2023-09-19T13:01:25;8.40;;;1.52;;
40599;SDS011;26309;50.924;4.754;2023-09-19T13:06:45;6.25;;;1.27;;
40599;SDS011;26309;50.924;4.754;2023-09-19T13:09:15;2.67;;;1.50;;
40599;SDS011;26309;50.924;4.754;2023-09-19T13:11:43;4.97;;;1.27;;
40599;SDS011;26309;50.924;4.754;2023-09-19T13:19:51;5.13;;;1.20;;
40599;SDS011;26309;50.924;4.754;2023-09-19T13:25:15;4.18;;;1.30;;
40599;SDS011;26309;50.924;4.754;2023-09-19T13:27:46;7.55;;;1.40;;
40599;SDS011;26309;50.924;4.754;2023-09-19T13:30:17;4.88;;;1.33;;
40599;SDS011;26309;50.924;4.754;2023-09-19T13:32:43;4.18;;;1.65;;
40599;SDS011;26309;50.924;4.754;2023-09-19T13:35:13;5.13;;;1.45;;
40599;SDS011;26309;50.924;4.754;2023-09-19T13:37:45;5.95;;;1.40;;
40599;SDS011;26309;50.924;4.754;2023-09-19T13:40:17;6.20;;;1.60;;
40599;SDS011;26309;50.924;4.754;2023-09-19T13:42:49;4.10;;;1.20;;
40599;SDS011;26309;50.924;4.754;2023-09-19T13:45:24;2.78;;;1.25;;
40599;SDS011;26309;50.924;4.754;2023-09-19T13:47:56;3.45;;;1.27;;
40599;SDS011;26309;50.924;4.754;2023-09-19T13:50:25;6.53;;;1.67;;
40599;SDS011;26309;50.924;4.754;2023-09-19T13:52:56;4.05;;;1.48;;
40599;SDS011;26309;50.924;4.754;2023-09-19T13:55:26;4.68;;;1.27;;
40599;SDS011;26309;50.924;4.754;2023-09-19T13:57:57;7.22;;;1.33;;
40599;SDS011;26309;50.924;4.754;2023-09-19T14:00:27;4.60;;;1.05;;
40599;SDS011;26309;50.924;4.754;2023-09-19T14:02:58;3.95;;;1.35;;
40599;SDS011;26309;50.924;4.754;2023-09-19T14:05:31;5.07;;;1.40;;
40599;SDS011;26309;50.924;4.754;2023-09-19T14:07:58;3.00;;;1.17;;
40599;SDS011;26309;50.924;4.754;2023-09-19T14:10:25;5.57;;;1.63;;
40599;SDS011;26309;50.924;4.754;2023-09-19T14:12:56;3.47;;;1.27;;
40599;SDS011;26309;50.924;4.754;2023-09-19T14:15:24;4.00;;;1.40;;
40599;SDS011;26309;50.924;4.754;2023-09-19T14:17:55;3.60;;;1.40;;
40599;SDS011;26309;50.924;4.754;2023-09-19T14:20:22;3.30;;;1.52;;
40599;SDS011;26309;50.924;4.754;2023-09-19T14:22:48;4.25;;;1.45;;
40599;SDS011;26309;50.924;4.754;2023-09-19T14:25:14;8.57;;;1.65;;
40599;SDS011;26309;50.924;4.754;2023-09-19T14:27:40;5.18;;;1.42;;
40599;SDS011;26309;50.924;4.754;2023-09-19T14:30:08;3.70;;;1.45;;
40599;SDS011;26309;50.924;4.754;2023-09-19T14:32:34;7.57;;;1.42;;
40599;SDS011;26309;50.924;4.754;2023-09-19T14:35:04;4.75;;;1.60;;
40599;SDS011;26309;50.924;4.754;2023-09-19T14:37:31;5.03;;;1.70;;
40599;SDS011;26309;50.924;4.754;2023-09-19T14:39:57;5.13;;;1.73;;
40599;SDS011;26309;50.924;4.754;2023-09-19T14:42:23;5.18;;;1.60;;
40599;SDS011;26309;50.924;4.754;2023-09-19T14:44:49;5.30;;;1.50;;
40599;SDS011;26309;50.924;4.754;2023-09-19T14:47:18;7.43;;;1.85;;
40599;SDS011;26309;50.924;4.754;2023-09-19T14:49:46;5.55;;;1.50;;
40599;SDS011;26309;50.924;4.754;2023-09-19T14:52:12;5.47;;;1.70;;
40599;SDS011;26309;50.924;4.754;2023-09-19T14:54:40;6.75;;;1.50;;
40599;SDS011;26309;50.924;4.754;2023-09-19T14:57:10;5.53;;;1.95;;
40599;SDS011;26309;50.924;4.754;2023-09-19T14:59:38;5.30;;;1.52;;
40599;SDS011;26309;50.924;4.754;2023-09-19T15:02:05;3.95;;;1.38;;
40599;SDS011;26309;50.924;4.754;2023-09-19T15:04:32;7.25;;;1.80;;
40599;SDS011;26309;50.924;4.754;2023-09-19T15:07:02;6.40;;;1.60;;
40599;SDS011;26309;50.924;4.754;2023-09-19T15:09:28;6.13;;;1.60;;
40599;SDS011;26309;50.924;4.754;2023-09-19T15:11:57;4.40;;;1.73;;
40599;SDS011;26309;50.924;4.754;2023-09-19T15:14:23;7.57;;;1.70;;
40599;SDS011;26309;50.924;4.754;2023-09-19T15:16:59;5.25;;;1.52;;
40599;SDS011;26309;50.924;4.754;2023-09-19T15:19:36;5.47;;;1.67;;
40599;SDS011;26309;50.924;4.754;2023-09-19T15:22:02;5.53;;;1.75;;
40599;SDS011;26309;50.924;4.754;2023-09-19T15:24:29;5.68;;;1.73;;
40599;SDS011;26309;50.924;4.754;2023-09-19T15:46:21;7.72;;;2.05;;
40599;SDS011;26309;50.924;4.754;2023-09-19T15:56:05;6.43;;;2.00;;
40599;SDS011;26309;50.924;4.754;2023-09-19T16:01:08;8.15;;;1.77;;
40599;SDS011;26309;50.924;4.754;2023-09-19T16:03:37;4.57;;;1.67;;
40599;SDS011;26309;50.924;4.754;2023-09-19T16:06:10;5.63;;;1.55;;
40599;SDS011;26309;50.924;4.754;2023-09-19T17:14:14;6.57;;;2.08;;
40599;SDS011;26309;50.924;4.754;2023-09-19T17:16:41;4.57;;;1.58;;
40599;SDS011;26309;50.924;4.754;2023-09-19T17:19:07;7.13;;;1.88;;
40599;SDS011;26309;50.924;4.754;2023-09-19T17:21:34;3.72;;;1.60;;
40599;SDS011;26309;50.924;4.754;2023-09-19T17:24:00;5.82;;;1.70;;
40599;SDS011;26309;50.924;4.754;2023-09-19T17:26:28;8.38;;;1.90;;